静岡空港の過去48時間の天気

静岡空港 (Shizuoka)

現在時刻: 9/17 20:17 JST (9/17 11:17 UTC) 以下の時間は現地時間です。

過去48時間のMETAR気象情報
時間 風向 風速(m/s) 視程 気温(℃) 湿度(%) 気圧(hPa) 天気現象
17 20:00 不定 1 10km以上 26 84 1010
17 19:00 南西 3 10km以上 27 79 1010
17 18:00 3 10km以上 27 79 1009
17 17:00 北東 2 10km以上 28 62 1008
17 16:00 不定 1 10km以上 29 62 1008
17 15:00 南東 5 10km以上 29 62 1007
17 14:00 東北東 4 10km以上 30 55 1007
17 13:00 4 10km以上 30 59 1008
17 12:00 3 10km以上 30 59 1008
17 11:00 東北東 2 10km以上 29 62 1008
17 10:00 2 10km以上 28 70 1008
17 09:00 東北東 3 10km以上 28 66 1009
17 08:00 東北東 4 10km以上 28 74 1008
17 07:30 北東 2 10km以上 26 89 1007
16 21:00 東南東 2 10km以上 26 100 1003
16 20:00 南南東 3 10km以上 26 94 1002
16 19:00 南南東 4 10km以上 26 94 1001
16 18:00 南東 3 10km以上 27 84 1000
16 17:00 1 10km以上 29 70 999
16 16:00 不定 1 10km以上 29 66 999
16 15:00 3 10km以上 29 66 999
16 14:00 南東 4 10km以上 30 66 999
16 13:00 5 10km以上 32 56 998
16 12:00 3 10km以上 31 59 999
16 11:00 3 10km以上 30 62 999
16 10:00 西北西 2 10km以上 31 59 999
16 09:00 北北西 3 10km以上 29 66 1000
16 08:00 北北西 2 10km以上 27 74 1001
16 07:30 北北東 2 10km以上 26 79 1001
15 21:00 北東 2 10km以上 27 62 1005
RJNS 171100Z VRB01KT 9999 FEW015 SCT030 BKN045 26/23 Q1010
RJNS 171000Z 22005KT 9999 FEW015 BKN045 27/23 Q1010
RJNS 170900Z 17006KT 9999 FEW015 BKN045 27/23 Q1009
RJNS 170800Z 05003KT 010V090 9999 FEW015 BKN045 28/20 Q1008
RJNS 170700Z VRB02KT 9999 FEW025 SCT050 29/21 Q1008
RJNS 170600Z 14009KT 100V170 9999 FEW025 SCT045 29/21 Q1007
RJNS 170500Z 07008KT 040V110 9999 FEW025 SCT090 30/20 Q1007
RJNS 170400Z 08007KT 030V120 9999 FEW020 SCT060 BKN080 30/21 Q1008
RJNS 170300Z 09006KT 010V120 9999 FEW020 SCT060 BKN080 30/21 Q1008
RJNS 170200Z 07004KT 010V110 9999 FEW020 SCT060 BKN080 29/21 Q1008
RJNS 170100Z 08004KT 030V130 9999 FEW020 SCT060 BKN080 28/22 Q1008
RJNS 170000Z 07006KT 010V150 9999 FEW020 SCT050 BKN080 28/21 Q1009
RJNS 162300Z 06007KT 030V100 9999 FEW015 SCT060 BKN080 28/23 Q1008
RJNS 162230Z 04003KT 340V100 9999 FEW015 SCT060 BKN080 26/24 Q1007
RJNS 161200Z 11003KT 9999 FEW011 SCT045 26/26 Q1003
RJNS 161100Z 15005KT 9999 FEW010 26/25 Q1002
RJNS 161000Z 16007KT 9999 FEW010 SCT070 26/25 Q1001
RJNS 160900Z 13006KT 9999 FEW010 27/24 Q1000
RJNS 160800Z 01002KT 9999 FEW025 SCT070 BKN090 29/23 Q0999
RJNS 160700Z VRB02KT 9999 FEW025 SCT060 BKN070 29/22 Q0999
RJNS 160600Z 09005KT 050V110 9999 FEW025 BKN060 29/22 Q0999
RJNS 160500Z 13008KT 090V160 9999 FEW025 SCT090 30/23 Q0999
RJNS 160400Z 10010KT 9999 FEW025 32/22 Q0998
RJNS 160300Z VRB05KT 9999 FEW025 SCT100 31/22 Q0999
RJNS 160200Z 09006KT 060V130 9999 FEW025 SCT090 30/22 Q0999
RJNS 160100Z 30003KT 220V350 9999 FEW025 BKN090 31/22 Q0999
RJNS 160000Z 33005KT 270V020 9999 FEW025 SCT070 29/22 Q1000
RJNS 152300Z 34004KT 300V060 9999 FEW025 SCT080 27/22 Q1001
RJNS 152230Z 03004KT 340V100 9999 FEW025 SCT080 26/22 Q1001
RJNS 151200Z 05004KT 350V100 9999 FEW030 27/19 Q1005